Cockenzie, United Kingdom
Current Conditions -  °F | °C
As of 4:20 AM on Friday 28 Nov 2014 (Local Time) from EGPH Reporting Station
Light Fog Light Fog  
Wind Chill: 36°   Ceiling: Unl
Heat Index: 36°   Visibility: 0.62mi
Dew Point: 36°   Wind: 0mph
Humidity: 100%   Direction: NA
Pressure: 29.68"   Gusts: NA
Location:  55.97°N, 2.97°W
Report Text: EGPH 280420Z 00000KT 1000 R06/0350 BCFG SCT015 02/02 Q1005
Loading
Personal Weather Stations






























Interactive Weather Map New forecast layout! Learn more

10-Day Weather Forecast

Advertisements
Track Severe Weather on mobile